Time;durP1;ratioP1;P1;durP2;ratioP2;P2;SDS_P1;SDS_P2;PMS_P1;PMS_P2;Temp;Humidity;BMP_temperature;BMP_pressure;BME280_temperature;BME280_humidity;BME280_pressure;Samples;Min_cycle;Max_cycle;Signal;HPM_P1;HPM_P2
2021/07/27 00:01:37;;;;;;;0.20;0.00;;;;;;;;;;10431185;28;20596;-25
2021/07/27 00:06:40;;;;;;;0.00;0.00;;;;;;;;;;10435912;28;20075;-25
2021/07/27 00:11:42;;;;;;;0.10;0.10;;;;;;;;;;10436084;28;20052;-26
2021/07/27 00:16:47;;;;;;;0.20;0.00;;;;;;;;;;10431038;28;20511;-24
2021/07/27 00:21:49;;;;;;;0.00;0.00;;;;;;;;;;10436095;28;20057;-25
2021/07/27 00:26:54;;;;;;;0.10;0.00;;;;;;;;;;10443588;28;20056;-24
2021/07/27 00:31:58;;;;;;;0.00;0.00;;;;;;;;;;10435363;28;20037;-24
2021/07/27 00:37:01;;;;;;;0.00;0.00;;;;;;;;;;10442243;28;20051;-21
2021/07/27 00:42:03;;;;;;;0.00;0.00;;;;;;;;;;10442990;28;20041;-24
2021/07/27 00:47:07;;;;;;;0.00;0.00;;;;;;;;;;10441013;28;20048;-24
2021/07/27 00:52:10;;;;;;;0.00;0.00;;;;;;;;;;10443713;28;20402;-23
2021/07/27 00:57:13;;;;;;;0.20;0.10;;;;;;;;;;10442748;28;20064;-24
2021/07/27 01:02:17;;;;;;;0.10;0.10;;;;;;;;;;10444303;28;20037;-23
2021/07/27 01:07:21;;;;;;;0.00;0.00;;;;;;;;;;10439993;28;20057;-24
2021/07/27 01:12:25;;;;;;;0.00;0.00;;;;;;;;;;10442103;28;20064;-24
2021/07/27 01:17:29;;;;;;;0.10;0.10;;;;;;;;;;10442642;28;20076;-24
2021/07/27 01:38:54;;;;;;;0.00;0.00;;;;;;;;;;10436449;28;20052;-25
2021/07/27 01:43:57;;;;;;;0.00;0.00;;;;;;;;;;10439173;28;20043;-24
2021/07/27 01:48:59;;;;;;;0.00;0.00;;;;;;;;;;10439433;28;20045;-23
2021/07/27 01:54:08;;;;;;;0.00;0.00;;;;;;;;;;10439561;28;20490;-26
2021/07/27 01:59:10;;;;;;;0.10;0.00;;;;;;;;;;10437168;28;20049;-24
2021/07/27 02:04:13;;;;;;;0.00;0.00;;;;;;;;;;10438610;28;20055;-23
2021/07/27 02:09:17;;;;;;;0.10;0.08;;;;;;;;;;10439177;28;20041;-23
2021/07/27 02:14:23;;;;;;;0.08;0.08;;;;;;;;;;10437080;28;20106;-24
2021/07/27 02:19:26;;;;;;;0.00;0.00;;;;;;;;;;10437323;28;20114;-24
2021/07/27 02:24:30;;;;;;;0.03;0.03;;;;;;;;;;10437718;28;20049;-23
2021/07/27 02:29:33;;;;;;;0.00;0.00;;;;;;;;;;10436002;28;20041;-23
2021/07/27 02:34:36;;;;;;;0.00;0.00;;;;;;;;;;10436822;28;20059;-23
2021/07/27 02:39:40;;;;;;;0.00;0.00;;;;;;;;;;10437362;28;20047;-24
2021/07/27 02:44:43;;;;;;;0.10;0.10;;;;;;;;;;10440097;28;20056;-25
2021/07/27 02:49:46;;;;;;;0.00;0.00;;;;;;;;;;10435009;28;20049;-24
2021/07/27 02:54:50;;;;;;;0.00;0.00;;;;;;;;;;10433574;28;20041;-24
2021/07/27 02:59:53;;;;;;;0.00;0.00;;;;;;;;;;10434639;28;20049;-24
2021/07/27 03:04:56;;;;;;;0.20;0.10;;;;;;;;;;10447132;28;20041;-24
2021/07/27 03:10:19;;;;;;;0.00;0.00;;;;;;;;;;10437342;28;20047;-23
2021/07/27 03:15:22;;;;;;;0.00;0.00;;;;;;;;;;10437110;28;20556;-23
2021/07/27 03:20:27;;;;;;;0.00;0.00;;;;;;;;;;10436685;28;20059;-23
2021/07/27 03:25:31;;;;;;;0.10;0.10;;;;;;;;;;10435075;28;20045;-24
2021/07/27 03:30:34;;;;;;;0.00;0.00;;;;;;;;;;10427638;28;20049;-24
2021/07/27 03:35:36;;;;;;;0.10;0.10;;;;;;;;;;10426925;28;20492;-24
2021/07/27 03:40:40;;;;;;;0.00;0.00;;;;;;;;;;10426891;28;20041;-24
2021/07/27 03:45:43;;;;;;;0.00;0.00;;;;;;;;;;10433019;28;20223;-24
2021/07/27 03:50:46;;;;;;;0.10;0.10;;;;;;;;;;10428438;28;20049;-24
2021/07/27 03:55:50;;;;;;;0.10;0.10;;;;;;;;;;10439117;28;20056;-23
2021/07/27 04:00:52;;;;;;;0.10;0.10;;;;;;;;;;10442375;28;20059;-23
2021/07/27 04:05:55;;;;;;;0.00;0.00;;;;;;;;;;10438901;28;20045;-23
2021/07/27 04:11:01;;;;;;;0.00;0.00;;;;;;;;;;10451503;28;20045;-23
2021/07/27 04:16:05;;;;;;;0.00;0.00;;;;;;;;;;10442439;28;20502;-23
2021/07/27 04:21:07;;;;;;;0.00;0.00;;;;;;;;;;10439449;28;20052;-23
2021/07/27 04:26:11;;;;;;;0.00;0.00;;;;;;;;;;10442174;28;20382;-23
2021/07/27 04:31:14;;;;;;;0.03;0.00;;;;;;;;;;10442154;28;20045;-23
2021/07/27 04:36:17;;;;;;;0.03;0.00;;;;;;;;;;10440124;28;20052;-24
2021/07/27 04:41:21;;;;;;;0.00;0.00;;;;;;;;;;10442327;28;20124;-23
2021/07/27 04:46:23;;;;;;;0.05;0.05;;;;;;;;;;10440891;28;20041;-23
2021/07/27 04:51:26;;;;;;;0.05;0.00;;;;;;;;;;10434235;28;20391;-25
2021/07/27 04:56:31;;;;;;;0.10;0.10;;;;;;;;;;10447919;28;20048;-24
2021/07/27 05:01:33;;;;;;;0.00;0.00;;;;;;;;;;10441380;28;20044;-23
2021/07/27 05:06:38;;;;;;;0.00;0.00;;;;;;;;;;10437615;28;20048;-23
2021/07/27 05:11:42;;;;;;;0.05;0.05;;;;;;;;;;10440319;28;20049;-24
2021/07/27 05:16:44;;;;;;;0.00;0.00;;;;;;;;;;10440074;28;20045;-23
2021/07/27 05:21:49;;;;;;;0.08;0.08;;;;;;;;;;10434532;28;20056;-23
2021/07/27 05:26:53;;;;;;;0.00;0.00;;;;;;;;;;10440041;28;20040;-23
2021/07/27 05:31:56;;;;;;;0.00;0.00;;;;;;;;;;10440444;28;20049;-23
2021/07/27 05:36:59;;;;;;;0.00;0.00;;;;;;;;;;10438531;28;20064;-24
2021/07/27 05:42:03;;;;;;;0.00;0.00;;;;;;;;;;10439903;28;20063;-23
2021/07/27 05:47:06;;;;;;;0.00;0.00;;;;;;;;;;10438460;28;20059;-23
2021/07/27 05:52:12;;;;;;;0.00;0.00;;;;;;;;;;10434219;28;20049;-24
2021/07/27 05:57:17;;;;;;;0.00;0.00;;;;;;;;;;10435526;28;20045;-23
2021/07/27 06:02:21;;;;;;;0.00;0.00;;;;;;;;;;10438807;28;20652;-23
2021/07/27 06:07:24;;;;;;;0.00;0.00;;;;;;;;;;10437250;28;20045;-23
2021/07/27 06:12:28;;;;;;;0.00;0.00;;;;;;;;;;10438668;28;20079;-23
2021/07/27 06:17:31;;;;;;;0.00;0.00;;;;;;;;;;10435615;28;20049;-24
2021/07/27 06:22:33;;;;;;;0.10;0.10;;;;;;;;;;10438220;28;20049;-24
2021/07/27 06:27:38;;;;;;;0.28;0.03;;;;;;;;;;10438004;28;20056;-23
2021/07/27 06:32:40;;;;;;;0.10;0.00;;;;;;;;;;10438068;28;20750;-24
2021/07/27 06:37:43;;;;;;;0.10;0.00;;;;;;;;;;10437916;28;20052;-24
2021/07/27 06:42:47;;;;;;;0.00;0.00;;;;;;;;;;10439001;28;20048;-23
2021/07/27 06:47:53;;;;;;;0.28;0.03;;;;;;;;;;10433499;28;20048;-23
2021/07/27 06:52:56;;;;;;;0.10;0.00;;;;;;;;;;10436760;28;20048;-23
2021/07/27 06:58:00;;;;;;;0.03;0.00;;;;;;;;;;10436635;28;20485;-23
2021/07/27 07:03:03;;;;;;;0.00;0.00;;;;;;;;;;10426522;28;20053;-24
2021/07/27 07:08:06;;;;;;;0.00;0.00;;;;;;;;;;10436132;28;20048;-23
2021/07/27 07:13:10;;;;;;;0.00;0.00;;;;;;;;;;10437927;28;20037;-25
2021/07/27 07:18:12;;;;;;;0.00;0.00;;;;;;;;;;10436102;28;20585;-23
2021/07/27 07:23:15;;;;;;;0.00;0.00;;;;;;;;;;10445819;28;20048;-24
2021/07/27 07:28:20;;;;;;;0.25;0.00;;;;;;;;;;10434686;28;20408;-24
2021/07/27 07:33:23;;;;;;;0.10;0.00;;;;;;;;;;10421508;28;20051;-23
2021/07/27 07:38:26;;;;;;;0.05;0.00;;;;;;;;;;10407824;28;20048;-23
2021/07/27 07:43:30;;;;;;;0.00;0.00;;;;;;;;;;10434561;28;20513;-23
2021/07/27 07:48:33;;;;;;;0.00;0.00;;;;;;;;;;10434255;28;20064;-23
2021/07/27 07:53:36;;;;;;;0.00;0.00;;;;;;;;;;10427163;28;20036;-24
2021/07/27 07:58:40;;;;;;;0.00;0.00;;;;;;;;;;10434732;28;20413;-24
2021/07/27 08:03:42;;;;;;;0.00;0.00;;;;;;;;;;10432467;28;20071;-23
2021/07/27 08:08:45;;;;;;;0.00;0.00;;;;;;;;;;10435644;28;20049;-23
2021/07/27 08:13:52;;;;;;;0.00;0.00;;;;;;;;;;10435170;28;20048;-24
2021/07/27 08:18:55;;;;;;;0.05;0.00;;;;;;;;;;10429776;28;20080;-25
2021/07/27 08:23:57;;;;;;;0.30;0.00;;;;;;;;;;10435056;28;20045;-23
2021/07/27 08:29:01;;;;;;;0.00;0.00;;;;;;;;;;10434295;28;20513;-23
2021/07/27 08:34:04;;;;;;;0.00;0.00;;;;;;;;;;10430484;28;20045;-24
2021/07/27 08:39:06;;;;;;;0.00;0.00;;;;;;;;;;10434027;28;20045;-24
2021/07/27 08:44:18;;;;;;;0.00;0.00;;;;;;;;;;10439651;28;20044;-23
2021/07/27 08:49:22;;;;;;;0.00;0.00;;;;;;;;;;10440699;28;20048;-23
2021/07/27 08:54:25;;;;;;;0.00;0.00;;;;;;;;;;10441798;28;20493;-23
2021/07/27 08:59:29;;;;;;;0.00;0.00;;;;;;;;;;10440447;28;20043;-24
2021/07/27 09:04:31;;;;;;;0.00;0.00;;;;;;;;;;10421591;28;20056;-23
2021/07/27 09:09:35;;;;;;;0.00;0.00;;;;;;;;;;10440519;28;20037;-24
2021/07/27 09:14:44;;;;;;;0.00;0.00;;;;;;;;;;10441971;28;20087;-24
2021/07/27 09:19:46;;;;;;;0.00;0.00;;;;;;;;;;10415061;28;20049;-24
2021/07/27 09:24:49;;;;;;;0.00;0.00;;;;;;;;;;10417219;28;20048;-24
2021/07/27 09:29:53;;;;;;;0.00;0.00;;;;;;;;;;10441150;28;20049;-24
2021/07/27 09:35:03;;;;;;;0.00;0.00;;;;;;;;;;10439839;28;20041;-23
2021/07/27 09:40:06;;;;;;;0.00;0.00;;;;;;;;;;10439800;28;20045;-24
2021/07/27 09:45:10;;;;;;;0.00;0.00;;;;;;;;;;10438236;28;20351;-25
2021/07/27 09:50:13;;;;;;;0.00;0.00;;;;;;;;;;10439549;28;20055;-24
2021/07/27 09:55:16;;;;;;;0.00;0.00;;;;;;;;;;10437401;28;20068;-23
2021/07/27 10:00:24;;;;;;;0.00;0.00;;;;;;;;;;10438837;28;20052;-24
2021/07/27 10:05:27;;;;;;;0.00;0.00;;;;;;;;;;10438271;28;20048;-24
2021/07/27 10:10:35;;;;;;;0.00;0.00;;;;;;;;;;10436963;28;20390;-24
2021/07/27 10:15:43;;;;;;;0.00;0.00;;;;;;;;;;10437294;28;20045;-26
2021/07/27 10:20:45;;;;;;;0.00;0.00;;;;;;;;;;10437889;28;20061;-24
2021/07/27 10:25:58;;;;;;;0.00;0.00;;;;;;;;;;10437154;28;20061;-23
2021/07/27 10:31:05;;;;;;;0.00;0.00;;;;;;;;;;10438402;28;20044;-24
2021/07/27 10:36:08;;;;;;;0.00;0.00;;;;;;;;;;10437365;28;20065;-24
2021/07/27 10:41:15;;;;;;;0.00;0.00;;;;;;;;;;10437462;28;20599;-24
2021/07/27 10:46:26;;;;;;;0.00;0.00;;;;;;;;;;10436191;28;20402;-24
2021/07/27 10:51:29;;;;;;;0.00;0.00;;;;;;;;;;10436954;28;20459;-24
2021/07/27 10:56:32;;;;;;;0.00;0.00;;;;;;;;;;10437497;28;20052;-24
2021/07/27 11:01:36;;;;;;;0.00;0.00;;;;;;;;;;10420720;28;20504;-24
2021/07/27 11:06:39;;;;;;;0.00;0.00;;;;;;;;;;10426541;28;20045;-24
2021/07/27 11:11:45;;;;;;;0.08;0.00;;;;;;;;;;10437518;28;20044;-24
2021/07/27 11:16:50;;;;;;;0.00;0.00;;;;;;;;;;10433004;28;20045;-24
2021/07/27 11:21:54;;;;;;;0.00;0.00;;;;;;;;;;10431165;28;20045;-24
2021/07/27 11:26:58;;;;;;;0.00;0.00;;;;;;;;;;10436142;28;20414;-24
2021/07/27 11:32:12;;;;;;;0.00;0.00;;;;;;;;;;10437049;28;20041;-24
2021/07/27 11:37:24;;;;;;;0.00;0.00;;;;;;;;;;10413216;28;20134;-24
2021/07/27 11:42:28;;;;;;;0.00;0.00;;;;;;;;;;10433766;28;20521;-24
2021/07/27 11:47:42;;;;;;;0.35;0.00;;;;;;;;;;10434960;28;20383;-24
2021/07/27 11:52:55;;;;;;;0.00;0.00;;;;;;;;;;10431989;28;20041;-24
2021/07/27 11:57:58;;;;;;;0.00;0.00;;;;;;;;;;10432412;28;20063;-25
2021/07/27 12:03:04;;;;;;;0.00;0.00;;;;;;;;;;10434821;28;20045;-24
2021/07/27 12:08:07;;;;;;;0.00;0.00;;;;;;;;;;10433783;28;20041;-24
2021/07/27 12:13:09;;;;;;;0.03;0.00;;;;;;;;;;10434399;28;20061;-24
2021/07/27 12:18:14;;;;;;;0.00;0.00;;;;;;;;;;10439931;28;20055;-25
2021/07/27 12:23:18;;;;;;;0.17;0.00;;;;;;;;;;10441530;28;20170;-24
2021/07/27 12:28:34;;;;;;;0.00;0.00;;;;;;;;;;10441696;28;20060;-24
2021/07/27 12:33:39;;;;;;;0.10;0.00;;;;;;;;;;10441111;28;20056;-25
2021/07/27 12:38:42;;;;;;;0.00;0.00;;;;;;;;;;10441943;28;20128;-24
2021/07/27 12:43:44;;;;;;;0.00;0.00;;;;;;;;;;10440740;28;20422;-24
2021/07/27 12:48:48;;;;;;;0.00;0.00;;;;;;;;;;10441159;28;20041;-26
2021/07/27 12:53:51;;;;;;;0.00;0.00;;;;;;;;;;10441512;28;20412;-24
2021/07/27 12:58:54;;;;;;;0.00;0.00;;;;;;;;;;10441958;28;20045;-26
2021/07/27 13:03:58;;;;;;;0.00;0.00;;;;;;;;;;10441025;28;20361;-24
2021/07/27 13:09:01;;;;;;;0.00;0.00;;;;;;;;;;10440085;28;20486;-24
2021/07/27 13:14:06;;;;;;;0.00;0.00;;;;;;;;;;10441837;28;20040;-24
2021/07/27 13:19:10;;;;;;;0.00;0.00;;;;;;;;;;10439431;28;20040;-25
2021/07/27 13:24:13;;;;;;;0.00;0.00;;;;;;;;;;10441342;28;20061;-24
2021/07/27 13:29:16;;;;;;;0.00;0.00;;;;;;;;;;10399168;28;20061;-26
2021/07/27 13:34:23;;;;;;;0.00;0.00;;;;;;;;;;10411138;28;20405;-24
2021/07/27 13:39:25;;;;;;;0.00;0.00;;;;;;;;;;10437049;28;20048;-24
2021/07/27 13:44:28;;;;;;;0.03;0.00;;;;;;;;;;10439605;28;20498;-26
2021/07/27 13:49:32;;;;;;;0.00;0.00;;;;;;;;;;10439369;28;20044;-24
2021/07/27 13:54:36;;;;;;;0.00;0.00;;;;;;;;;;10427303;28;20041;-24
2021/07/27 13:59:39;;;;;;;0.00;0.00;;;;;;;;;;10438905;28;20397;-26
2021/07/27 14:04:43;;;;;;;0.00;0.00;;;;;;;;;;10438216;28;20152;-24
2021/07/27 14:09:46;;;;;;;0.00;0.00;;;;;;;;;;10437897;28;20045;-24
2021/07/27 14:14:48;;;;;;;0.05;0.00;;;;;;;;;;10434263;28;20055;-23
2021/07/27 14:19:52;;;;;;;0.00;0.00;;;;;;;;;;10437815;28;20044;-23
2021/07/27 14:24:55;;;;;;;0.00;0.00;;;;;;;;;;10437270;28;20047;-24
2021/07/27 14:29:58;;;;;;;0.00;0.00;;;;;;;;;;10436328;28;20080;-24
2021/07/27 14:35:02;;;;;;;0.17;0.00;;;;;;;;;;10437447;28;20512;-24
2021/07/27 14:40:05;;;;;;;0.00;0.00;;;;;;;;;;10436764;28;20041;-26
2021/07/27 14:45:08;;;;;;;0.00;0.00;;;;;;;;;;10432013;28;20553;-26
2021/07/27 14:50:13;;;;;;;0.00;0.00;;;;;;;;;;10433458;28;20041;-24
2021/07/27 14:55:19;;;;;;;0.00;0.00;;;;;;;;;;10436910;28;20132;-24
2021/07/27 15:00:22;;;;;;;0.00;0.00;;;;;;;;;;10438210;28;20045;-23
2021/07/27 15:05:26;;;;;;;0.00;0.00;;;;;;;;;;10426055;28;20061;-24
2021/07/27 15:10:32;;;;;;;0.00;0.00;;;;;;;;;;10438111;28;20094;-24
2021/07/27 15:15:35;;;;;;;0.00;0.00;;;;;;;;;;10436884;28;20147;-24
2021/07/27 15:20:39;;;;;;;0.00;0.00;;;;;;;;;;10434226;28;20387;-24
2021/07/27 15:25:41;;;;;;;0.10;0.00;;;;;;;;;;10435522;28;20049;-24
2021/07/27 15:30:44;;;;;;;0.00;0.00;;;;;;;;;;10436921;28;20033;-24
2021/07/27 15:35:49;;;;;;;0.00;0.00;;;;;;;;;;10436814;28;20047;-24
2021/07/27 15:40:51;;;;;;;0.22;0.00;;;;;;;;;;10431477;28;20353;-24
2021/07/27 15:45:54;;;;;;;0.00;0.00;;;;;;;;;;10435877;28;20045;-25
2021/07/27 15:50:58;;;;;;;0.00;0.00;;;;;;;;;;10430560;28;20137;-25
2021/07/27 15:56:00;;;;;;;0.00;0.00;;;;;;;;;;10435912;28;20045;-25
2021/07/27 16:01:03;;;;;;;0.00;0.00;;;;;;;;;;10459487;28;20049;-24
2021/07/27 16:06:07;;;;;;;0.08;0.00;;;;;;;;;;10443237;28;20040;-24
2021/07/27 16:11:10;;;;;;;0.00;0.00;;;;;;;;;;10441923;28;20119;-25
2021/07/27 16:16:13;;;;;;;0.00;0.00;;;;;;;;;;10438028;28;20045;-25
2021/07/27 16:21:18;;;;;;;0.00;0.00;;;;;;;;;;10442813;28;20056;-25
2021/07/27 16:26:21;;;;;;;0.00;0.00;;;;;;;;;;10440879;28;20379;-24
2021/07/27 16:31:23;;;;;;;0.00;0.00;;;;;;;;;;10441954;28;20532;-24
2021/07/27 16:36:27;;;;;;;0.00;0.00;;;;;;;;;;10442023;28;20061;-24
2021/07/27 16:41:30;;;;;;;0.00;0.00;;;;;;;;;;10442419;28;20045;-24
2021/07/27 16:46:33;;;;;;;0.00;0.00;;;;;;;;;;10440904;28;20052;-24
2021/07/27 16:51:37;;;;;;;0.00;0.00;;;;;;;;;;10441749;28;20102;-24
2021/07/27 16:56:39;;;;;;;0.00;0.00;;;;;;;;;;10444206;28;20051;-24
2021/07/27 17:01:42;;;;;;;0.00;0.00;;;;;;;;;;10435793;28;20048;-25
2021/07/27 17:06:47;;;;;;;0.00;0.00;;;;;;;;;;10442710;28;20065;-24
2021/07/27 17:11:50;;;;;;;0.00;0.00;;;;;;;;;;10445026;28;20056;-25
2021/07/27 17:16:53;;;;;;;0.00;0.00;;;;;;;;;;10442944;28;20048;-25
2021/07/27 17:21:57;;;;;;;0.00;0.00;;;;;;;;;;10403236;28;20412;-24
2021/07/27 17:26:59;;;;;;;0.00;0.00;;;;;;;;;;10435092;28;20041;-25
2021/07/27 17:32:02;;;;;;;0.10;0.00;;;;;;;;;;10443344;28;20041;-26
2021/07/27 17:37:08;;;;;;;0.00;0.00;;;;;;;;;;10444905;28;20041;-25
2021/07/27 17:42:11;;;;;;;0.00;0.00;;;;;;;;;;10449395;28;20049;-24
2021/07/27 17:47:13;;;;;;;0.10;0.00;;;;;;;;;;10450318;28;20037;-24
2021/07/27 17:52:19;;;;;;;0.00;0.00;;;;;;;;;;10449755;28;20044;-26
2021/07/27 17:57:22;;;;;;;0.00;0.00;;;;;;;;;;10443180;28;20063;-26
2021/07/27 18:02:25;;;;;;;0.00;0.00;;;;;;;;;;10446284;28;20513;-25
2021/07/27 18:07:29;;;;;;;0.00;0.00;;;;;;;;;;10435635;28;20045;-26
2021/07/27 18:12:33;;;;;;;0.00;0.00;;;;;;;;;;10432393;28;20406;-26
2021/07/27 18:17:35;;;;;;;0.00;0.00;;;;;;;;;;10436641;28;20608;-25
2021/07/27 18:22:39;;;;;;;0.00;0.00;;;;;;;;;;10435867;28;20056;-25
2021/07/27 18:27:42;;;;;;;0.17;0.00;;;;;;;;;;10435975;28;20041;-26
2021/07/27 18:32:45;;;;;;;0.00;0.00;;;;;;;;;;10437613;28;20079;-25
2021/07/27 18:37:49;;;;;;;0.00;0.00;;;;;;;;;;10437340;28;20052;-27
2021/07/27 18:42:52;;;;;;;0.00;0.00;;;;;;;;;;10452088;28;20055;-25
2021/07/27 18:47:54;;;;;;;0.30;0.00;;;;;;;;;;10435969;28;20037;-26
2021/07/27 18:53:04;;;;;;;0.00;0.00;;;;;;;;;;10454325;28;20045;-25
2021/07/27 18:58:06;;;;;;;0.00;0.00;;;;;;;;;;10420423;28;20044;-26
2021/07/27 19:03:10;;;;;;;0.00;0.00;;;;;;;;;;10436525;28;20141;-25
2021/07/27 19:08:14;;;;;;;0.00;0.00;;;;;;;;;;10436496;28;20029;-25
2021/07/27 19:13:21;;;;;;;0.00;0.00;;;;;;;;;;10436589;28;20045;-25
2021/07/27 19:18:24;;;;;;;0.10;0.00;;;;;;;;;;10435228;28;20048;-25
2021/07/27 19:23:29;;;;;;;0.10;0.00;;;;;;;;;;10435078;28;20072;-24
2021/07/27 19:28:34;;;;;;;0.00;0.00;;;;;;;;;;10436485;28;20497;-25
2021/07/27 19:33:37;;;;;;;0.90;0.00;;;;;;;;;;10426651;28;20402;-25
2021/07/27 19:38:42;;;;;;;0.00;0.00;;;;;;;;;;10436925;28;20061;-24
2021/07/27 19:43:48;;;;;;;0.00;0.00;;;;;;;;;;10434906;28;20051;-23
2021/07/27 19:49:00;;;;;;;0.00;0.00;;;;;;;;;;10445358;28;20040;-25
2021/07/27 19:54:04;;;;;;;0.00;0.00;;;;;;;;;;10447232;28;20403;-26
2021/07/27 19:59:07;;;;;;;0.00;0.00;;;;;;;;;;10445850;28;20041;-25
2021/07/27 20:04:11;;;;;;;0.00;0.00;;;;;;;;;;10447592;28;20848;-25
2021/07/27 20:09:16;;;;;;;0.00;0.00;;;;;;;;;;10447070;28;20029;-25
2021/07/27 20:14:19;;;;;;;0.05;0.00;;;;;;;;;;10448489;28;20131;-25
2021/07/27 20:19:22;;;;;;;0.00;0.00;;;;;;;;;;10446645;28;20139;-24
2021/07/27 20:24:26;;;;;;;0.08;0.00;;;;;;;;;;10443434;28;20130;-25
2021/07/27 20:29:28;;;;;;;0.10;0.00;;;;;;;;;;10448233;28;20033;-24
2021/07/27 20:34:31;;;;;;;0.00;0.00;;;;;;;;;;10441397;28;20045;-25
2021/07/27 20:39:35;;;;;;;0.20;0.00;;;;;;;;;;10442140;28;20501;-25
2021/07/27 20:44:38;;;;;;;0.00;0.00;;;;;;;;;;10436259;28;20055;-25
2021/07/27 20:49:40;;;;;;;0.00;0.00;;;;;;;;;;10443286;28;20045;-26
2021/07/27 20:54:52;;;;;;;0.05;0.00;;;;;;;;;;10443216;28;20045;-26
2021/07/27 20:59:54;;;;;;;0.00;0.00;;;;;;;;;;10422271;28;20381;-25
2021/07/27 21:04:58;;;;;;;0.00;0.00;;;;;;;;;;10439479;28;20044;-25
2021/07/27 21:10:02;;;;;;;0.10;0.08;;;;;;;;;;10443608;28;20040;-24
2021/07/27 21:15:05;;;;;;;0.00;0.00;;;;;;;;;;10440037;28;20056;-25
2021/07/27 21:20:08;;;;;;;0.00;0.00;;;;;;;;;;10442738;28;20501;-26
2021/07/27 21:25:15;;;;;;;0.00;0.00;;;;;;;;;;10427923;28;20410;-25
2021/07/27 21:30:17;;;;;;;0.00;0.00;;;;;;;;;;10468967;28;20127;-26
2021/07/27 21:35:20;;;;;;;0.00;0.00;;;;;;;;;;10470366;28;20048;-27
2021/07/27 21:40:24;;;;;;;0.00;0.00;;;;;;;;;;10479745;28;20036;-25
2021/07/27 21:45:27;;;;;;;0.00;0.00;;;;;;;;;;10482514;28;20044;-26
2021/07/27 21:50:29;;;;;;;0.00;0.00;;;;;;;;;;10443045;28;20075;-25
2021/07/27 21:55:33;;;;;;;0.47;0.08;;;;;;;;;;10437140;28;20037;-25
2021/07/27 22:00:36;;;;;;;0.43;0.00;;;;;;;;;;10440752;28;20037;-25
2021/07/27 22:05:42;;;;;;;0.00;0.00;;;;;;;;;;10429746;28;20045;-25
2021/07/27 22:10:45;;;;;;;0.00;0.00;;;;;;;;;;10426592;28;20042;-25
2021/07/27 22:15:48;;;;;;;0.00;0.00;;;;;;;;;;10432880;28;20065;-25
2021/07/27 22:20:52;;;;;;;0.00;0.00;;;;;;;;;;10436519;28;20124;-25
2021/07/27 22:25:56;;;;;;;0.03;0.00;;;;;;;;;;10426935;28;20049;-26
2021/07/27 22:30:59;;;;;;;0.00;0.00;;;;;;;;;;10438343;28;20041;-25
2021/07/27 22:36:02;;;;;;;0.00;0.00;;;;;;;;;;10429929;28;20046;-25
2021/07/27 22:41:06;;;;;;;0.00;0.00;;;;;;;;;;10425007;28;20033;-28
2021/07/27 22:46:08;;;;;;;0.38;0.00;;;;;;;;;;10403030;28;20783;-25
2021/07/27 22:51:11;;;;;;;0.00;0.00;;;;;;;;;;10436474;28;20071;-26
2021/07/27 22:56:15;;;;;;;0.08;0.00;;;;;;;;;;10412353;28;20403;-26
2021/07/27 23:01:18;;;;;;;0.00;0.00;;;;;;;;;;10357641;28;20042;-24
2021/07/27 23:06:22;;;;;;;0.00;0.00;;;;;;;;;;10371447;28;20613;-25
2021/07/27 23:11:26;;;;;;;0.00;0.00;;;;;;;;;;10398312;28;20498;-24
2021/07/27 23:16:28;;;;;;;0.00;0.00;;;;;;;;;;10393992;28;20041;-25
2021/07/27 23:21:31;;;;;;;0.10;0.10;;;;;;;;;;10413296;28;20122;-25
2021/07/27 23:26:39;;;;;;;0.00;0.00;;;;;;;;;;10396698;28;20750;-25
2021/07/27 23:31:42;;;;;;;0.13;0.00;;;;;;;;;;10395898;28;20841;-24
2021/07/27 23:36:45;;;;;;;0.00;0.00;;;;;;;;;;10377836;28;20103;-25
2021/07/27 23:41:49;;;;;;;0.15;0.00;;;;;;;;;;10432137;28;20494;-25
2021/07/27 23:46:53;;;;;;;0.00;0.00;;;;;;;;;;10425267;28;20055;-25
2021/07/27 23:51:56;;;;;;;0.08;0.08;;;;;;;;;;10401540;28;20037;-25
2021/07/27 23:57:00;;;;;;;0.10;0.00;;;;;;;;;;10383638;28;20048;-25
